sensor_id;sensor_type;location;lat;lon;timestamp;pressure;altitude;pressure_sealevel;temperature;humidity
38014;BME280;23820;46.054;14.486;2022-07-05T00:01:54;98096.50;;;28.00;54.48
38014;BME280;23820;46.054;14.486;2022-07-05T00:04:41;98101.47;;;27.95;54.82
38014;BME280;23820;46.054;14.486;2022-07-05T00:07:34;98106.44;;;27.90;54.63
38014;BME280;23820;46.054;14.486;2022-07-05T00:10:15;98104.22;;;27.86;54.65
38014;BME280;23820;46.054;14.486;2022-07-05T00:12:46;98107.34;;;27.81;54.87
38014;BME280;23820;46.054;14.486;2022-07-05T00:15:22;98106.00;;;27.77;54.70
38014;BME280;23820;46.054;14.486;2022-07-05T00:18:35;98100.97;;;27.74;54.74
38014;BME280;23820;46.054;14.486;2022-07-05T00:21:32;98092.97;;;27.74;54.97
38014;BME280;23820;46.054;14.486;2022-07-05T00:24:36;98089.75;;;27.62;54.94
38014;BME280;23820;46.054;14.486;2022-07-05T00:40:41;98062.94;;;27.46;55.17
38014;BME280;23820;46.054;14.486;2022-07-05T00:44:05;98047.78;;;27.47;55.97
38014;BME280;23820;46.054;14.486;2022-07-05T00:47:06;98046.09;;;27.46;55.97
38014;BME280;23820;46.054;14.486;2022-07-05T00:50:02;98034.72;;;27.35;55.93
38014;BME280;23820;46.054;14.486;2022-07-05T00:58:20;98049.06;;;26.99;58.03
38014;BME280;23820;46.054;14.486;2022-07-05T01:01:07;98070.69;;;26.96;57.58
38014;BME280;23820;46.054;14.486;2022-07-05T01:04:03;98071.25;;;26.90;57.96
38014;BME280;23820;46.054;14.486;2022-07-05T01:20:02;98079.75;;;26.76;57.03
38014;BME280;23820;46.054;14.486;2022-07-05T01:22:58;98081.41;;;26.77;57.37
38014;BME280;23820;46.054;14.486;2022-07-05T01:25:36;98075.56;;;26.73;58.38
38014;BME280;23820;46.054;14.486;2022-07-05T01:28:15;98072.34;;;26.69;57.44
38014;BME280;23820;46.054;14.486;2022-07-05T01:31:02;98077.66;;;26.69;58.50
38014;BME280;23820;46.054;14.486;2022-07-05T01:33:46;98093.00;;;26.67;58.35
38014;BME280;23820;46.054;14.486;2022-07-05T01:50:12;98119.88;;;26.37;58.76
38014;BME280;23820;46.054;14.486;2022-07-05T01:52:51;98105.47;;;26.30;58.21
38014;BME280;23820;46.054;14.486;2022-07-05T01:55:42;98103.81;;;26.29;59.01
38014;BME280;23820;46.054;14.486;2022-07-05T01:58:16;98096.25;;;26.24;58.32
38014;BME280;23820;46.054;14.486;2022-07-05T02:00:55;98104.97;;;26.17;59.56
38014;BME280;23820;46.054;14.486;2022-07-05T02:03:40;98089.28;;;26.14;58.49
38014;BME280;23820;46.054;14.486;2022-07-05T02:06:40;98101.75;;;26.13;58.86
38014;BME280;23820;46.054;14.486;2022-07-05T02:09:39;98107.66;;;26.07;59.20
38014;BME280;23820;46.054;14.486;2022-07-05T02:17:29;98119.25;;;26.06;58.40
38014;BME280;23820;46.054;14.486;2022-07-05T02:22:53;98140.59;;;25.96;58.61
38014;BME280;23820;46.054;14.486;2022-07-05T02:25:51;98145.91;;;25.96;58.68
38014;BME280;23820;46.054;14.486;2022-07-05T02:28:29;98155.00;;;25.94;59.03
38014;BME280;23820;46.054;14.486;2022-07-05T02:31:07;98154.59;;;25.89;59.89
38014;BME280;23820;46.054;14.486;2022-07-05T03:20:24;98035.38;;;25.28;61.65
38014;BME280;23820;46.054;14.486;2022-07-05T03:23:07;98072.56;;;25.18;62.48
38014;BME280;23820;46.054;14.486;2022-07-05T03:32:23;98097.97;;;25.01;62.96
38014;BME280;23820;46.054;14.486;2022-07-05T06:42:34;98145.03;;;26.05;65.25
38014;BME280;23820;46.054;14.486;2022-07-05T06:45:07;98150.47;;;26.14;64.56
38014;BME280;23820;46.054;14.486;2022-07-05T06:47:38;98154.63;;;26.26;64.54
38014;BME280;23820;46.054;14.486;2022-07-05T06:50:09;98149.84;;;26.39;65.40
38014;BME280;23820;46.054;14.486;2022-07-05T06:55:22;98140.03;;;26.40;64.90
38014;BME280;23820;46.054;14.486;2022-07-05T07:22:01;98153.13;;;27.33;64.12
38014;BME280;23820;46.054;14.486;2022-07-05T07:25:00;98158.50;;;27.41;63.91
38014;BME280;23820;46.054;14.486;2022-07-05T07:59:24;98145.38;;;27.83;62.76
38014;BME280;23820;46.054;14.486;2022-07-05T08:22:12;98137.72;;;28.06;61.79
38014;BME280;23820;46.054;14.486;2022-07-05T08:34:28;98138.09;;;28.19;61.92
38014;BME280;23820;46.054;14.486;2022-07-05T08:56:39;98138.22;;;29.28;59.43
38014;BME280;23820;46.054;14.486;2022-07-05T09:11:16;98143.78;;;29.75;57.82
38014;BME280;23820;46.054;14.486;2022-07-05T09:13:55;98149.28;;;29.82;58.04
38014;BME280;23820;46.054;14.486;2022-07-05T09:16:31;98146.59;;;29.98;56.71
38014;BME280;23820;46.054;14.486;2022-07-05T09:19:12;98143.72;;;30.16;57.26
38014;BME280;23820;46.054;14.486;2022-07-05T09:21:45;98146.03;;;30.35;56.32
38014;BME280;23820;46.054;14.486;2022-07-05T09:27:18;98140.59;;;30.67;56.06
38014;BME280;23820;46.054;14.486;2022-07-05T10:27:42;98101.72;;;32.23;51.38
38014;BME280;23820;46.054;14.486;2022-07-05T11:03:52;98069.75;;;32.94;48.43
38014;BME280;23820;46.054;14.486;2022-07-05T11:06:45;98073.44;;;32.93;48.52
38014;BME280;23820;46.054;14.486;2022-07-05T11:12:02;98078.47;;;33.17;47.98
38014;BME280;23820;46.054;14.486;2022-07-05T11:14:40;98082.53;;;33.28;48.30
38014;BME280;23820;46.054;14.486;2022-07-05T11:17:18;98077.66;;;33.38;47.34
38014;BME280;23820;46.054;14.486;2022-07-05T11:30:50;98075.78;;;33.60;46.42
38014;BME280;23820;46.054;14.486;2022-07-05T11:58:08;98036.44;;;34.21;45.18
38014;BME280;23820;46.054;14.486;2022-07-05T12:14:01;98042.25;;;34.25;44.75
38014;BME280;23820;46.054;14.486;2022-07-05T12:16:34;98029.47;;;34.34;43.80
38014;BME280;23820;46.054;14.486;2022-07-05T12:28:05;98024.31;;;34.93;43.61
38014;BME280;23820;46.054;14.486;2022-07-05T12:30:40;98011.88;;;34.99;44.20
38014;BME280;23820;46.054;14.486;2022-07-05T12:33:13;98009.56;;;35.09;44.08
38014;BME280;23820;46.054;14.486;2022-07-05T12:35:45;98003.75;;;35.05;43.81
38014;BME280;23820;46.054;14.486;2022-07-05T12:43:58;97989.84;;;35.08;42.48
38014;BME280;23820;46.054;14.486;2022-07-05T12:46:43;97984.88;;;35.12;42.06
38014;BME280;23820;46.054;14.486;2022-07-05T13:03:12;97979.50;;;35.45;41.47
38014;BME280;23820;46.054;14.486;2022-07-05T13:05:59;97982.81;;;35.53;41.19
38014;BME280;23820;46.054;14.486;2022-07-05T13:11:13;97982.00;;;35.40;39.94
38014;BME280;23820;46.054;14.486;2022-07-05T13:14:03;97969.56;;;35.32;41.22
38014;BME280;23820;46.054;14.486;2022-07-05T13:16:43;97966.22;;;35.37;40.39
38014;BME280;23820;46.054;14.486;2022-07-05T13:21:48;97977.84;;;35.17;40.56
38014;BME280;23820;46.054;14.486;2022-07-05T13:24:18;97978.03;;;35.16;40.28
38014;BME280;23820;46.054;14.486;2022-07-05T13:26:49;97987.78;;;35.10;39.63
38014;BME280;23820;46.054;14.486;2022-07-05T13:29:20;97981.97;;;35.07;39.96
38014;BME280;23820;46.054;14.486;2022-07-05T13:31:50;97996.09;;;34.96;40.04
38014;BME280;23820;46.054;14.486;2022-07-05T13:34:27;97996.50;;;34.86;39.80
38014;BME280;23820;46.054;14.486;2022-07-05T13:42:25;97995.03;;;34.90;40.30
38014;BME280;23820;46.054;14.486;2022-07-05T13:44:56;97988.63;;;34.91;39.93
38014;BME280;23820;46.054;14.486;2022-07-05T13:47:37;98006.47;;;34.92;40.59
38014;BME280;23820;46.054;14.486;2022-07-05T13:55:54;97988.38;;;34.79;40.88
38014;BME280;23820;46.054;14.486;2022-07-05T14:01:47;97960.53;;;34.66;39.89
38014;BME280;23820;46.054;14.486;2022-07-05T14:04:21;97969.88;;;34.63;40.74
38014;BME280;23820;46.054;14.486;2022-07-05T14:07:00;97965.72;;;34.60;40.44
38014;BME280;23820;46.054;14.486;2022-07-05T14:09:51;97964.88;;;34.53;40.55
38014;BME280;23820;46.054;14.486;2022-07-05T14:12:34;97973.56;;;34.49;40.70
38014;BME280;23820;46.054;14.486;2022-07-05T14:15:05;97975.59;;;34.40;40.68
38014;BME280;23820;46.054;14.486;2022-07-05T14:17:35;97970.81;;;34.36;41.41
38014;BME280;23820;46.054;14.486;2022-07-05T14:20:06;97970.63;;;34.31;41.30
38014;BME280;23820;46.054;14.486;2022-07-05T14:22:36;97959.84;;;34.31;41.73
38014;BME280;23820;46.054;14.486;2022-07-05T14:25:07;97965.00;;;34.32;41.69
38014;BME280;23820;46.054;14.486;2022-07-05T14:27:37;97967.69;;;34.32;42.19
38014;BME280;23820;46.054;14.486;2022-07-05T14:30:08;97974.34;;;34.36;42.03
38014;BME280;23820;46.054;14.486;2022-07-05T14:32:40;97968.56;;;34.39;41.94
38014;BME280;23820;46.054;14.486;2022-07-05T14:35:10;97977.66;;;34.38;41.92
38014;BME280;23820;46.054;14.486;2022-07-05T14:37:41;97975.63;;;34.47;42.21
38014;BME280;23820;46.054;14.486;2022-07-05T14:45:40;97952.44;;;34.66;40.89
38014;BME280;23820;46.054;14.486;2022-07-05T14:51:10;97962.41;;;34.72;42.13
38014;BME280;23820;46.054;14.486;2022-07-05T14:53:44;97970.72;;;34.77;41.81
38014;BME280;23820;46.054;14.486;2022-07-05T14:59:12;97979.06;;;34.88;40.72
38014;BME280;23820;46.054;14.486;2022-07-05T15:01:43;97986.13;;;34.89;41.38
38014;BME280;23820;46.054;14.486;2022-07-05T15:04:15;97989.63;;;34.83;40.71
38014;BME280;23820;46.054;14.486;2022-07-05T15:12:18;97985.19;;;34.56;42.01
38014;BME280;23820;46.054;14.486;2022-07-05T15:15:34;97994.88;;;34.37;41.11
38014;BME280;23820;46.054;14.486;2022-07-05T15:18:06;97990.91;;;34.33;41.62
38014;BME280;23820;46.054;14.486;2022-07-05T15:20:57;97999.44;;;34.30;41.81
38014;BME280;23820;46.054;14.486;2022-07-05T15:23:34;98009.53;;;34.28;42.28
38014;BME280;23820;46.054;14.486;2022-07-05T15:26:08;98009.31;;;34.23;42.51
38014;BME280;23820;46.054;14.486;2022-07-05T15:31:15;98022.94;;;34.15;42.60
38014;BME280;23820;46.054;14.486;2022-07-05T15:33:48;98022.69;;;34.10;42.31
38014;BME280;23820;46.054;14.486;2022-07-05T15:39:22;98032.16;;;33.99;41.92
38014;BME280;23820;46.054;14.486;2022-07-05T15:42:01;98027.59;;;33.93;41.98
38014;BME280;23820;46.054;14.486;2022-07-05T15:45:01;98024.72;;;33.94;41.94
38014;BME280;23820;46.054;14.486;2022-07-05T15:47:34;98025.84;;;33.79;42.44
38014;BME280;23820;46.054;14.486;2022-07-05T15:50:12;98027.88;;;33.77;42.41
38014;BME280;23820;46.054;14.486;2022-07-05T15:55:54;98035.44;;;33.67;42.34
38014;BME280;23820;46.054;14.486;2022-07-05T15:58:35;98036.47;;;33.66;42.72
38014;BME280;23820;46.054;14.486;2022-07-05T16:01:27;98034.19;;;33.62;43.46
38014;BME280;23820;46.054;14.486;2022-07-05T16:04:00;98035.81;;;33.57;42.92
38014;BME280;23820;46.054;14.486;2022-07-05T16:06:46;98037.22;;;33.53;43.62
38014;BME280;23820;46.054;14.486;2022-07-05T16:09:19;98023.53;;;33.48;43.56
38014;BME280;23820;46.054;14.486;2022-07-05T16:26:36;97999.97;;;33.28;44.27
38014;BME280;23820;46.054;14.486;2022-07-05T16:29:10;98004.47;;;33.21;44.47
38014;BME280;23820;46.054;14.486;2022-07-05T16:31:42;98014.97;;;33.16;44.97
38014;BME280;23820;46.054;14.486;2022-07-05T16:34:13;98027.56;;;33.16;44.83
38014;BME280;23820;46.054;14.486;2022-07-05T16:36:43;98031.88;;;33.10;45.73
38014;BME280;23820;46.054;14.486;2022-07-05T16:39:15;98035.50;;;33.03;45.70
38014;BME280;23820;46.054;14.486;2022-07-05T16:41:45;98027.25;;;33.04;45.57
38014;BME280;23820;46.054;14.486;2022-07-05T16:44:16;98024.31;;;32.99;45.62
38014;BME280;23820;46.054;14.486;2022-07-05T16:46:46;98026.16;;;32.98;45.49
38014;BME280;23820;46.054;14.486;2022-07-05T16:49:19;98036.78;;;33.07;45.58
38014;BME280;23820;46.054;14.486;2022-07-05T16:51:54;98033.78;;;33.16;45.57
38014;BME280;23820;46.054;14.486;2022-07-05T16:54:26;98031.94;;;33.38;44.96
38014;BME280;23820;46.054;14.486;2022-07-05T16:56:58;98026.91;;;33.56;44.78
38014;BME280;23820;46.054;14.486;2022-07-05T16:59:37;98043.00;;;33.50;45.02
38014;BME280;23820;46.054;14.486;2022-07-05T17:02:07;98047.59;;;33.56;44.32
38014;BME280;23820;46.054;14.486;2022-07-05T17:04:44;98065.75;;;33.47;44.91
38014;BME280;23820;46.054;14.486;2022-07-05T17:07:23;98070.22;;;33.40;44.77
38014;BME280;23820;46.054;14.486;2022-07-05T17:10:13;98075.75;;;33.32;44.47
38014;BME280;23820;46.054;14.486;2022-07-05T17:12:46;98083.28;;;33.22;44.91
38014;BME280;23820;46.054;14.486;2022-07-05T17:15:20;98084.63;;;33.11;44.82
38014;BME280;23820;46.054;14.486;2022-07-05T17:17:50;98094.66;;;33.03;45.00
38014;BME280;23820;46.054;14.486;2022-07-05T17:20:20;98096.41;;;32.89;44.71
38014;BME280;23820;46.054;14.486;2022-07-05T17:22:51;98091.97;;;32.81;45.09
38014;BME280;23820;46.054;14.486;2022-07-05T17:25:23;98093.44;;;32.69;45.67
38014;BME280;23820;46.054;14.486;2022-07-05T17:27:53;98090.13;;;32.52;45.62
38014;BME280;23820;46.054;14.486;2022-07-05T17:30:24;98088.38;;;32.45;45.77
38014;BME280;23820;46.054;14.486;2022-07-05T17:32:54;98094.13;;;32.27;46.11
38014;BME280;23820;46.054;14.486;2022-07-05T17:35:24;98093.47;;;32.25;46.90
38014;BME280;23820;46.054;14.486;2022-07-05T17:37:55;98087.44;;;32.23;46.50
38014;BME280;23820;46.054;14.486;2022-07-05T17:40:25;98087.06;;;32.11;47.02
38014;BME280;23820;46.054;14.486;2022-07-05T17:42:55;98082.97;;;32.01;47.21
38014;BME280;23820;46.054;14.486;2022-07-05T17:45:26;98081.56;;;31.75;46.89
38014;BME280;23820;46.054;14.486;2022-07-05T17:47:56;98068.88;;;31.69;47.44
38014;BME280;23820;46.054;14.486;2022-07-05T17:50:27;98065.75;;;31.57;46.98
38014;BME280;23820;46.054;14.486;2022-07-05T17:53:01;98053.47;;;31.48;46.86
38014;BME280;23820;46.054;14.486;2022-07-05T17:55:35;98043.47;;;31.42;47.23
38014;BME280;23820;46.054;14.486;2022-07-05T17:58:05;98037.63;;;31.39;47.16
38014;BME280;23820;46.054;14.486;2022-07-05T18:00:35;98034.00;;;31.31;47.06
38014;BME280;23820;46.054;14.486;2022-07-05T18:03:06;98032.16;;;31.32;47.15
38014;BME280;23820;46.054;14.486;2022-07-05T18:05:37;98055.56;;;31.38;47.91
38014;BME280;23820;46.054;14.486;2022-07-05T18:08:07;98059.44;;;31.36;48.06
38014;BME280;23820;46.054;14.486;2022-07-05T18:10:37;98053.41;;;31.33;48.19
38014;BME280;23820;46.054;14.486;2022-07-05T18:13:19;98052.47;;;31.26;47.93
38014;BME280;23820;46.054;14.486;2022-07-05T18:19:10;98035.16;;;31.14;48.35
38014;BME280;23820;46.054;14.486;2022-07-05T18:27:07;98008.03;;;31.09;48.59
38014;BME280;23820;46.054;14.486;2022-07-05T18:29:58;98015.09;;;31.02;47.16
38014;BME280;23820;46.054;14.486;2022-07-05T18:32:42;98030.72;;;30.98;47.52
38014;BME280;23820;46.054;14.486;2022-07-05T18:38:22;98084.06;;;30.85;47.02
38014;BME280;23820;46.054;14.486;2022-07-05T18:40:58;98098.19;;;30.79;46.61
38014;BME280;23820;46.054;14.486;2022-07-05T18:43:56;98114.78;;;30.75;46.17
38014;BME280;23820;46.054;14.486;2022-07-05T18:46:38;98217.72;;;28.50;74.02
38014;BME280;23820;46.054;14.486;2022-07-05T18:49:09;98296.31;;;27.58;77.43
